createdAt,value
2018-06-24T00:02:11.741Z,13.00
2018-06-24T00:04:40.630Z,13.00
2018-06-24T00:07:09.677Z,13.00
2018-06-24T00:09:38.394Z,13.00
2018-06-24T00:12:07.024Z,13.10
2018-06-24T00:14:35.677Z,13.20
2018-06-24T00:17:04.347Z,13.20
2018-06-24T00:19:33.299Z,13.20
2018-06-24T00:22:02.014Z,13.20
2018-06-24T00:24:30.902Z,13.20
2018-06-24T00:26:59.831Z,13.20
2018-06-24T00:29:28.562Z,13.20
2018-06-24T00:31:57.219Z,13.00
2018-06-24T00:34:25.913Z,12.80
2018-06-24T00:36:54.706Z,12.80
2018-06-24T00:39:23.433Z,12.80
2018-06-24T00:41:52.105Z,12.90
2018-06-24T00:44:21.150Z,12.90
2018-06-24T00:46:49.895Z,12.90
2018-06-24T00:49:18.589Z,12.80
2018-06-24T00:51:47.260Z,12.70
2018-06-24T00:54:15.925Z,12.70
2018-06-24T00:56:44.649Z,12.60
2018-06-24T00:59:24.551Z,12.50
2018-06-24T01:04:21.740Z,12.50
2018-06-24T01:06:50.441Z,12.50
2018-06-24T01:09:19.115Z,12.50
2018-06-24T01:11:48.208Z,12.40
2018-06-24T01:14:16.905Z,12.20
2018-06-24T01:16:45.604Z,12.20
2018-06-24T01:19:14.303Z,12.10
2018-06-24T01:21:43.374Z,12.00
2018-06-24T01:24:12.439Z,12.00
2018-06-24T01:26:41.158Z,12.00
2018-06-24T01:29:09.828Z,11.90
2018-06-24T01:31:38.570Z,11.80
2018-06-24T01:34:07.365Z,11.80
2018-06-24T01:36:36.122Z,11.80
2018-06-24T01:39:05.983Z,11.70
2018-06-24T01:41:34.650Z,11.70
2018-06-24T01:44:03.397Z,11.70
2018-06-24T01:46:32.114Z,11.60
2018-06-24T01:49:00.761Z,11.60
2018-06-24T01:51:29.362Z,11.60
2018-06-24T01:53:58.014Z,11.50
2018-06-24T01:56:26.729Z,11.40
2018-06-24T01:58:55.464Z,11.40
2018-06-24T02:01:24.160Z,11.30
2018-06-24T02:03:52.893Z,11.30
2018-06-24T02:06:22.041Z,11.30
2018-06-24T02:08:50.763Z,11.30
2018-06-24T02:11:19.415Z,11.20
2018-06-24T02:13:48.106Z,11.20
2018-06-24T02:16:16.826Z,11.20
2018-06-24T02:18:45.559Z,11.20
2018-06-24T02:21:14.561Z,11.10
2018-06-24T02:23:43.203Z,11.10
2018-06-24T02:26:12.150Z,11.00
2018-06-24T02:28:40.833Z,11.00
2018-06-24T02:31:09.457Z,11.10
2018-06-24T02:33:38.170Z,11.00
2018-06-24T02:36:06.783Z,11.00
2018-06-24T02:38:35.859Z,11.00
2018-06-24T02:41:04.711Z,10.90
2018-06-24T02:43:33.311Z,10.90
2018-06-24T02:46:01.916Z,10.90
2018-06-24T02:48:30.615Z,10.90
2018-06-24T02:50:59.271Z,10.90
2018-06-24T02:53:27.917Z,10.90
2018-06-24T02:55:56.841Z,10.90
2018-06-24T02:58:25.460Z,10.80
2018-06-24T03:00:54.163Z,10.70
2018-06-24T03:03:23.235Z,10.60
2018-06-24T03:05:51.956Z,10.50
2018-06-24T03:10:49.025Z,10.50
2018-06-24T03:13:17.973Z,10.50
2018-06-24T03:15:46.725Z,10.60
2018-06-24T03:18:15.544Z,10.60
2018-06-24T03:20:44.755Z,10.60
2018-06-24T03:23:13.452Z,10.60
2018-06-24T03:25:42.199Z,10.60
2018-06-24T03:28:10.909Z,10.50
2018-06-24T03:30:39.771Z,10.40
2018-06-24T03:33:08.521Z,10.30
2018-06-24T03:35:37.265Z,10.30
2018-06-24T03:38:05.972Z,10.30
2018-06-24T03:40:34.657Z,10.30
2018-06-24T03:43:03.385Z,10.30
2018-06-24T03:45:32.104Z,10.30
2018-06-24T03:48:00.778Z,10.30
2018-06-24T03:50:29.467Z,10.30
2018-06-24T03:52:58.238Z,10.30
2018-06-24T03:55:27.038Z,10.30
2018-06-24T03:57:55.845Z,10.40
2018-06-24T04:00:24.573Z,10.40
2018-06-24T04:02:53.513Z,10.40
2018-06-24T04:05:22.400Z,10.40
2018-06-24T04:07:51.048Z,10.60
2018-06-24T04:10:19.655Z,10.70
2018-06-24T04:12:48.274Z,10.80
2018-06-24T04:15:16.938Z,10.80
2018-06-24T04:17:45.976Z,10.80
2018-06-24T04:20:14.650Z,10.90
2018-06-24T04:22:43.315Z,11.00
2018-06-24T04:25:12.088Z,11.00
2018-06-24T04:27:41.036Z,11.00
2018-06-24T04:30:09.975Z,11.00
2018-06-24T04:32:38.620Z,10.90
2018-06-24T04:35:07.219Z,10.90
2018-06-24T04:37:35.876Z,10.90
2018-06-24T04:40:04.625Z,10.90
2018-06-24T04:42:33.195Z,10.90
2018-06-24T04:45:01.862Z,10.90
2018-06-24T04:47:31.042Z,11.00
2018-06-24T04:49:59.898Z,11.00
2018-06-24T04:52:28.750Z,11.10
2018-06-24T04:54:57.393Z,11.20
2018-06-24T04:57:26.072Z,11.30
2018-06-24T04:59:54.732Z,11.40
2018-06-24T05:02:23.439Z,11.50
2018-06-24T05:04:52.022Z,11.60
2018-06-24T05:07:20.648Z,11.70
2018-06-24T05:09:49.312Z,11.80
2018-06-24T05:12:17.857Z,11.90
2018-06-24T05:14:46.479Z,12.00
2018-06-24T05:17:15.291Z,12.10
2018-06-24T05:19:44.048Z,12.10
2018-06-24T05:22:12.725Z,12.20
2018-06-24T05:24:41.393Z,12.20
2018-06-24T05:27:10.119Z,12.20
2018-06-24T05:29:38.865Z,12.30
2018-06-24T05:32:07.646Z,12.40
2018-06-24T05:34:36.583Z,12.50
2018-06-24T05:37:05.256Z,12.50
2018-06-24T05:39:33.878Z,12.60
2018-06-24T05:42:02.641Z,12.70
2018-06-24T05:44:31.405Z,12.80
2018-06-24T05:47:00.134Z,12.90
2018-06-24T05:49:28.743Z,13.00
2018-06-24T05:51:57.415Z,13.10
2018-06-24T05:54:26.201Z,13.20
2018-06-24T05:56:54.904Z,13.30
2018-06-24T05:59:23.602Z,13.50
2018-06-24T06:01:52.421Z,13.70
2018-06-24T06:04:21.098Z,13.90
2018-06-24T06:06:50.054Z,14.10
2018-06-24T06:09:18.733Z,14.30
2018-06-24T06:11:47.464Z,14.40
2018-06-24T06:14:16.086Z,14.60
2018-06-24T06:16:44.877Z,14.80
2018-06-24T06:19:13.540Z,14.90
2018-06-24T06:21:42.325Z,15.10
2018-06-24T06:24:11.118Z,15.20
2018-06-24T06:26:39.879Z,15.40
2018-06-24T06:29:08.639Z,15.50
2018-06-24T06:31:37.315Z,15.70
2018-06-24T06:34:06.055Z,15.80
2018-06-24T06:36:34.827Z,16.00
2018-06-24T06:39:03.674Z,16.10
2018-06-24T06:41:32.359Z,16.10
2018-06-24T06:44:01.180Z,16.10
2018-06-24T06:46:29.882Z,16.10
2018-06-24T06:48:58.581Z,16.30
2018-06-24T06:51:27.502Z,16.50
2018-06-24T06:53:56.190Z,16.60
2018-06-24T06:56:24.966Z,16.60
2018-06-24T06:58:53.718Z,16.60
2018-06-24T07:01:22.335Z,16.70
2018-06-24T07:03:51.043Z,16.90
2018-06-24T07:06:19.699Z,17.20
2018-06-24T07:08:48.373Z,17.40
2018-06-24T07:11:17.001Z,17.60
2018-06-24T07:13:45.693Z,17.60
2018-06-24T07:16:14.365Z,17.60
2018-06-24T07:18:43.118Z,17.70
2018-06-24T07:21:11.742Z,18.20
2018-06-24T07:23:40.378Z,18.50
2018-06-24T07:26:08.956Z,18.60
2018-06-24T07:28:37.622Z,18.80
2018-06-24T07:31:06.287Z,18.60
2018-06-24T07:33:34.986Z,18.80
2018-06-24T07:36:03.506Z,19.10
2018-06-24T07:38:32.242Z,19.30
2018-06-24T07:41:00.874Z,19.40
2018-06-24T07:43:29.530Z,19.60
2018-06-24T07:45:58.402Z,19.90
2018-06-24T07:48:27.212Z,20.00
2018-06-24T07:53:24.121Z,20.20
2018-06-24T07:55:52.803Z,20.40
2018-06-24T07:58:21.366Z,20.60
2018-06-24T08:00:49.960Z,20.00
2018-06-24T08:03:18.682Z,19.50
2018-06-24T08:05:47.877Z,19.70
2018-06-24T08:08:16.527Z,20.00
2018-06-24T08:10:45.185Z,20.30
2018-06-24T08:13:13.875Z,20.50
2018-06-24T08:15:42.634Z,20.60
2018-06-24T08:18:11.471Z,21.10
2018-06-24T08:20:40.190Z,21.70
2018-06-24T08:23:08.841Z,22.20
2018-06-24T08:25:37.721Z,22.60
2018-06-24T08:28:06.382Z,23.00
2018-06-24T08:30:35.162Z,23.30
2018-06-24T08:33:03.888Z,23.40
2018-06-24T08:35:32.677Z,23.40
2018-06-24T08:38:02.866Z,23.60
2018-06-24T08:40:32.126Z,23.70
2018-06-24T08:43:01.088Z,23.80
2018-06-24T08:45:30.713Z,24.10
2018-06-24T08:47:59.618Z,24.70
2018-06-24T08:50:28.597Z,25.00
2018-06-24T08:52:57.599Z,24.50
2018-06-24T08:55:26.303Z,23.90
2018-06-24T08:57:55.006Z,23.10
2018-06-24T09:00:23.663Z,22.70
2018-06-24T09:02:52.345Z,22.00
2018-06-24T09:05:21.165Z,22.20
2018-06-24T09:07:49.858Z,22.90
2018-06-24T09:10:18.513Z,23.50
2018-06-24T09:12:47.169Z,23.90
2018-06-24T09:15:19.639Z,24.40
2018-06-24T09:17:48.360Z,24.30
2018-06-24T09:20:17.058Z,24.20
2018-06-24T09:22:45.734Z,24.20
2018-06-24T09:25:14.394Z,24.40
2018-06-24T09:27:43.014Z,24.20
2018-06-24T09:30:11.675Z,23.70
2018-06-24T09:32:40.329Z,23.60
2018-06-24T09:35:08.929Z,23.80
2018-06-24T09:37:37.643Z,24.30
2018-06-24T09:40:06.227Z,24.80
2018-06-24T09:42:34.866Z,25.30
2018-06-24T09:45:03.583Z,25.80
2018-06-24T09:47:32.202Z,26.10
2018-06-24T09:50:01.009Z,26.20
2018-06-24T09:52:29.634Z,25.90
2018-06-24T09:54:58.258Z,25.10
2018-06-24T09:57:27.014Z,24.40
2018-06-24T09:59:55.692Z,24.30
2018-06-24T10:02:24.318Z,24.40
2018-06-24T10:04:53.001Z,24.90
2018-06-24T10:07:21.634Z,25.50
2018-06-24T10:09:50.258Z,26.30
2018-06-24T10:12:18.947Z,27.10
2018-06-24T10:14:47.606Z,27.10
2018-06-24T10:17:16.565Z,26.80
2018-06-24T10:19:45.202Z,26.20
2018-06-24T10:22:13.908Z,25.70
2018-06-24T10:24:42.611Z,25.80
2018-06-24T10:27:11.338Z,26.20
2018-06-24T10:29:40.084Z,26.30
2018-06-24T10:32:08.843Z,26.40
2018-06-24T10:34:37.486Z,26.70
2018-06-24T10:37:06.233Z,27.00
2018-06-24T10:39:34.958Z,26.90
2018-06-24T10:42:03.646Z,26.60
2018-06-24T10:44:32.335Z,26.80
2018-06-24T10:47:01.138Z,27.00
2018-06-24T10:49:29.880Z,26.90
2018-06-24T10:51:58.599Z,26.40
2018-06-24T10:54:27.218Z,26.10
2018-06-24T10:56:55.905Z,26.20
2018-06-24T10:59:24.588Z,26.70
2018-06-24T11:01:53.426Z,25.80
2018-06-24T11:04:22.133Z,24.60
2018-06-24T11:06:50.800Z,23.60
2018-06-24T11:09:19.533Z,22.70
2018-06-24T11:11:48.222Z,22.70
2018-06-24T11:14:17.685Z,23.40
2018-06-24T11:16:47.171Z,24.00
2018-06-24T11:19:17.829Z,24.40
2018-06-24T11:21:46.881Z,25.00
2018-06-24T11:24:15.509Z,25.30
2018-06-24T11:26:44.102Z,24.10
2018-06-24T11:29:12.762Z,24.30
2018-06-24T11:31:41.435Z,24.50
2018-06-24T11:34:10.093Z,24.80
2018-06-24T11:36:39.662Z,25.00
2018-06-24T11:39:09.976Z,24.70
2018-06-24T11:41:38.767Z,23.80
2018-06-24T11:44:07.890Z,23.70
2018-06-24T11:46:36.637Z,24.30
2018-06-24T11:49:05.558Z,25.20
2018-06-24T11:51:35.133Z,26.10
2018-06-24T11:54:04.093Z,26.60
2018-06-24T11:56:32.676Z,26.60
2018-06-24T11:59:01.490Z,26.70
2018-06-24T12:01:30.376Z,27.30
2018-06-24T12:03:59.046Z,27.50
2018-06-24T12:06:27.669Z,27.80
2018-06-24T12:09:05.219Z,28.50
2018-06-24T12:11:34.724Z,29.40
2018-06-24T12:14:04.131Z,29.90
2018-06-24T12:16:32.700Z,29.60
2018-06-24T12:19:01.429Z,29.50
2018-06-24T12:21:30.004Z,29.60
2018-06-24T12:23:58.932Z,29.80
2018-06-24T12:26:27.944Z,28.80
2018-06-24T12:28:56.725Z,27.40
2018-06-24T12:33:53.767Z,26.70
2018-06-24T12:36:31.962Z,26.50
2018-06-24T12:39:00.579Z,26.50
2018-06-24T12:41:29.318Z,26.60
2018-06-24T12:43:58.047Z,26.50
2018-06-24T12:46:27.139Z,26.50
2018-06-24T12:48:55.860Z,26.50
2018-06-24T12:51:24.522Z,27.00
2018-06-24T12:53:53.185Z,27.80
2018-06-24T12:56:21.922Z,28.20
2018-06-24T12:58:50.788Z,28.00
2018-06-24T13:01:19.386Z,27.30
2018-06-24T13:03:48.076Z,26.00
2018-06-24T13:06:16.824Z,25.80
2018-06-24T13:08:45.491Z,25.60
2018-06-24T13:11:14.221Z,25.50
2018-06-24T13:13:43.113Z,25.50
2018-06-24T13:16:11.832Z,25.40
2018-06-24T13:18:40.564Z,25.50
2018-06-24T13:21:09.304Z,25.60
2018-06-24T13:23:38.793Z,25.90
2018-06-24T13:26:07.722Z,26.00
2018-06-24T13:31:05.057Z,27.30
2018-06-24T13:33:33.720Z,28.30
2018-06-24T13:36:02.470Z,29.30
2018-06-24T13:38:31.261Z,29.70
2018-06-24T13:41:00.139Z,28.90
2018-06-24T13:45:58.066Z,28.90
2018-06-24T13:48:27.627Z,29.20
2018-06-24T13:50:56.354Z,28.80
2018-06-24T13:53:25.056Z,28.10
2018-06-24T13:55:54.011Z,27.50
2018-06-24T13:58:22.658Z,27.40
2018-06-24T14:00:51.665Z,26.80
2018-06-24T14:03:20.387Z,25.80
2018-06-24T14:05:49.081Z,25.10
2018-06-24T14:08:17.760Z,24.90
2018-06-24T14:10:46.539Z,25.30
2018-06-24T14:13:15.306Z,25.50
2018-06-24T14:15:44.064Z,25.20
2018-06-24T14:18:12.790Z,25.00
2018-06-24T14:20:41.486Z,24.80
2018-06-24T14:23:10.166Z,24.90
2018-06-24T14:25:39.675Z,25.20
2018-06-24T14:28:08.413Z,26.00
2018-06-24T14:30:37.087Z,26.30
2018-06-24T14:33:28.931Z,26.50
2018-06-24T14:38:25.918Z,27.20
2018-06-24T14:40:54.626Z,27.90
2018-06-24T14:43:23.281Z,29.30
2018-06-24T14:45:51.832Z,30.70
2018-06-24T14:48:20.417Z,31.60
2018-06-24T14:53:22.020Z,30.60
2018-06-24T14:55:50.587Z,29.00
2018-06-24T14:58:19.236Z,27.40
2018-06-24T15:00:48.070Z,26.40
2018-06-24T15:03:16.726Z,25.30
2018-06-24T15:05:48.815Z,24.70
2018-06-24T15:08:20.689Z,24.40
2018-06-24T15:10:57.383Z,24.30
2018-06-24T15:13:27.549Z,24.40
2018-06-24T15:15:58.129Z,24.10
2018-06-24T15:18:28.159Z,23.80
2018-06-24T15:20:56.947Z,23.60
2018-06-24T15:23:25.789Z,23.50
2018-06-24T15:25:54.402Z,23.30
2018-06-24T15:28:23.071Z,23.30
2018-06-24T15:30:51.718Z,23.50
2018-06-24T15:33:20.322Z,23.70
2018-06-24T15:35:48.982Z,24.20
2018-06-24T15:38:17.629Z,24.80
2018-06-24T15:40:46.285Z,26.70
2018-06-24T15:43:14.957Z,28.20
2018-06-24T15:45:43.749Z,27.90
2018-06-24T15:48:12.378Z,27.50
2018-06-24T15:50:41.082Z,28.00
2018-06-24T15:53:09.697Z,29.10
2018-06-24T15:55:38.391Z,29.50
2018-06-24T15:58:07.183Z,28.70
2018-06-24T16:00:35.901Z,27.50
2018-06-24T16:03:04.630Z,26.90
2018-06-24T16:05:33.375Z,26.50
2018-06-24T16:08:01.967Z,26.00
2018-06-24T16:10:30.912Z,25.40
2018-06-24T16:12:59.506Z,25.00
2018-06-24T16:15:28.224Z,24.80
2018-06-24T16:17:56.863Z,24.70
2018-06-24T16:20:25.646Z,24.70
2018-06-24T16:22:54.218Z,24.30
2018-06-24T16:25:22.903Z,23.90
2018-06-24T16:27:51.489Z,23.90
2018-06-24T16:30:20.188Z,23.90
2018-06-24T16:32:48.718Z,24.00
2018-06-24T16:35:17.362Z,23.80
2018-06-24T16:37:45.923Z,23.60
2018-06-24T16:40:14.769Z,23.20
2018-06-24T16:42:43.381Z,22.90
2018-06-24T16:45:12.015Z,22.70
2018-06-24T16:47:41.743Z,22.60
2018-06-24T16:50:11.338Z,22.30
2018-06-24T16:52:39.994Z,22.00
2018-06-24T16:55:08.758Z,21.80
2018-06-24T16:57:37.417Z,21.70
2018-06-24T17:00:06.383Z,21.60
2018-06-24T17:02:35.107Z,21.50
2018-06-24T17:05:03.826Z,21.40
2018-06-24T17:07:32.941Z,21.50
2018-06-24T17:10:01.862Z,21.50
2018-06-24T17:12:30.851Z,21.60
2018-06-24T17:14:59.799Z,21.60
2018-06-24T17:17:28.673Z,21.70
2018-06-24T17:19:57.358Z,21.80
2018-06-24T17:22:26.023Z,21.70
2018-06-24T17:24:54.892Z,21.70
2018-06-24T17:27:23.630Z,21.50
2018-06-24T17:29:52.430Z,21.50
2018-06-24T17:32:21.265Z,21.40
2018-06-24T17:34:50.075Z,21.30
2018-06-24T17:37:18.834Z,21.10
2018-06-24T17:39:47.658Z,20.90
2018-06-24T17:42:16.445Z,20.80
2018-06-24T17:44:45.596Z,20.60
2018-06-24T17:47:14.291Z,20.60
2018-06-24T17:49:43.456Z,20.40
2018-06-24T17:52:12.095Z,20.10
2018-06-24T17:54:41.204Z,20.10
2018-06-24T17:57:09.874Z,20.00
2018-06-24T17:59:38.458Z,20.00
2018-06-24T18:02:07.166Z,19.90
2018-06-24T18:04:35.702Z,19.90
2018-06-24T18:07:04.485Z,19.80
2018-06-24T18:09:33.037Z,19.70
2018-06-24T18:12:02.082Z,19.70
2018-06-24T18:14:30.857Z,19.70
2018-06-24T18:16:59.772Z,19.60
2018-06-24T18:19:29.249Z,19.50
2018-06-24T18:21:57.908Z,19.50
2018-06-24T18:24:26.560Z,19.40
2018-06-24T18:26:55.200Z,19.40
2018-06-24T18:29:23.811Z,19.40
2018-06-24T18:31:52.375Z,19.50
2018-06-24T18:34:21.106Z,19.50
2018-06-24T18:36:50.147Z,19.50
2018-06-24T18:39:18.865Z,19.50
2018-06-24T18:41:47.443Z,19.50
2018-06-24T18:44:16.048Z,19.50
2018-06-24T18:46:44.677Z,19.50
2018-06-24T18:49:13.358Z,19.50
2018-06-24T18:51:41.930Z,19.50
2018-06-24T18:54:10.544Z,19.50
2018-06-24T18:56:39.185Z,19.50
2018-06-24T18:59:07.766Z,19.50
2018-06-24T19:01:36.391Z,19.40
2018-06-24T19:04:05.122Z,19.30
2018-06-24T19:06:33.756Z,19.20
2018-06-24T19:09:02.447Z,19.20
2018-06-24T19:11:31.015Z,19.20
2018-06-24T19:13:59.613Z,19.20
2018-06-24T19:16:28.320Z,19.20
2018-06-24T19:18:57.105Z,19.10
2018-06-24T19:21:25.729Z,19.00
2018-06-24T19:23:57.934Z,18.80
2018-06-24T19:26:26.575Z,18.60
2018-06-24T19:28:56.302Z,18.40
2018-06-24T19:31:25.042Z,18.30
2018-06-24T19:33:53.730Z,18.20
2018-06-24T19:36:22.440Z,18.20
2018-06-24T19:38:51.551Z,18.30
2018-06-24T19:41:20.914Z,18.30
2018-06-24T19:43:49.664Z,18.40
2018-06-24T19:46:18.317Z,18.40
2018-06-24T19:48:46.980Z,18.40
2018-06-24T19:51:15.647Z,18.40
2018-06-24T19:53:44.385Z,18.40
2018-06-24T19:56:13.093Z,18.40
2018-06-24T19:58:41.756Z,18.40
2018-06-24T20:01:10.559Z,18.30
2018-06-24T20:03:39.642Z,18.30
2018-06-24T20:06:08.330Z,18.30
2018-06-24T20:08:43.636Z,18.30
2018-06-24T20:11:12.695Z,18.20
2018-06-24T20:13:41.351Z,18.20
2018-06-24T20:16:09.969Z,18.20
2018-06-24T20:18:38.970Z,18.20
2018-06-24T20:21:07.675Z,18.10
2018-06-24T20:23:36.250Z,18.10
2018-06-24T20:26:05.083Z,18.10
2018-06-24T20:28:33.830Z,18.00
2018-06-24T20:31:02.997Z,18.00
2018-06-24T20:33:31.691Z,18.00
2018-06-24T20:36:00.723Z,18.00
2018-06-24T20:38:29.552Z,18.00
2018-06-24T20:40:58.234Z,18.00
2018-06-24T20:43:27.334Z,18.00
2018-06-24T20:45:56.118Z,18.00
2018-06-24T20:48:25.183Z,18.00
2018-06-24T20:50:53.935Z,17.90
2018-06-24T20:53:22.561Z,17.90
2018-06-24T20:55:51.310Z,17.90
2018-06-24T20:58:20.214Z,17.80
2018-06-24T21:00:49.152Z,17.80
2018-06-24T21:03:18.356Z,17.80
2018-06-24T21:05:47.454Z,17.70
2018-06-24T21:08:17.216Z,17.70
2018-06-24T21:10:46.693Z,17.70
2018-06-24T21:13:15.394Z,17.60
2018-06-24T21:15:44.340Z,17.60
2018-06-24T21:18:13.142Z,17.50
2018-06-24T21:20:42.354Z,17.40
2018-06-24T21:23:11.376Z,17.30
2018-06-24T21:25:40.167Z,17.20
2018-06-24T21:28:08.881Z,17.20
2018-06-24T21:30:37.578Z,17.20
2018-06-24T21:33:06.389Z,17.20
2018-06-24T21:35:35.506Z,17.10
2018-06-24T21:38:04.527Z,17.10
2018-06-24T21:40:33.230Z,17.20
2018-06-24T21:43:01.895Z,17.20
2018-06-24T21:45:30.557Z,17.20
2018-06-24T21:47:59.277Z,17.10
2018-06-24T21:50:27.903Z,17.10
2018-06-24T21:52:56.585Z,17.00
2018-06-24T21:55:25.208Z,16.90
2018-06-24T21:57:53.863Z,16.90
2018-06-24T22:00:22.541Z,16.80
2018-06-24T22:02:51.154Z,16.80
2018-06-24T22:05:19.734Z,16.70
2018-06-24T22:07:48.422Z,16.70
2018-06-24T22:10:17.165Z,16.70
2018-06-24T22:12:45.746Z,16.70
2018-06-24T22:15:14.423Z,16.60
2018-06-24T22:17:43.129Z,16.50
2018-06-24T22:20:11.820Z,16.50
2018-06-24T22:22:40.600Z,16.50
2018-06-24T22:25:09.325Z,16.60
2018-06-24T22:27:37.906Z,16.60
2018-06-24T22:30:07.513Z,16.60
2018-06-24T22:32:36.175Z,16.60
2018-06-24T22:35:04.858Z,16.60
2018-06-24T22:37:33.474Z,16.60
2018-06-24T22:40:02.103Z,16.60
2018-06-24T22:42:30.712Z,16.60
2018-06-24T22:44:59.372Z,16.60
2018-06-24T22:47:27.987Z,16.50
2018-06-24T22:49:56.651Z,16.50
2018-06-24T22:52:25.259Z,16.50
2018-06-24T22:54:54.078Z,16.50
2018-06-24T22:57:22.641Z,16.50
2018-06-24T23:00:25.011Z,16.50
2018-06-24T23:02:53.702Z,16.50
2018-06-24T23:05:22.376Z,16.50
2018-06-24T23:07:50.989Z,16.40
2018-06-24T23:10:19.972Z,16.50
2018-06-24T23:12:48.609Z,16.50
2018-06-24T23:15:17.492Z,16.50
2018-06-24T23:17:46.187Z,16.50
2018-06-24T23:20:14.869Z,16.40
2018-06-24T23:22:43.467Z,16.50
2018-06-24T23:25:12.116Z,16.50
2018-06-24T23:27:40.765Z,16.50
2018-06-24T23:30:09.422Z,16.50
2018-06-24T23:32:38.043Z,16.50
2018-06-24T23:35:06.964Z,16.50
2018-06-24T23:37:35.663Z,16.50
2018-06-24T23:40:04.449Z,16.50
2018-06-24T23:42:33.420Z,16.50
2018-06-24T23:45:02.038Z,16.50
2018-06-24T23:47:30.711Z,16.40
2018-06-24T23:49:59.387Z,16.40
2018-06-24T23:52:27.943Z,16.30
2018-06-24T23:54:56.547Z,16.30
2018-06-24T23:57:25.133Z,16.30
2018-06-24T23:59:53.785Z,16.30
